sensor_id;sensor_type;location;lat;lon;timestamp;P1;P2;P0
56495;PMS5003;42804;55.762;38.084;2023-05-07T00:01:44;6.40;4.80;1.00
56495;PMS5003;42804;55.762;38.084;2023-05-07T00:04:12;8.60;8.60;5.20
56495;PMS5003;42804;55.762;38.084;2023-05-07T00:06:41;10.60;8.60;4.80
56495;PMS5003;42804;55.762;38.084;2023-05-07T00:09:09;8.60;7.80;4.00
56495;PMS5003;42804;55.762;38.084;2023-05-07T00:11:38;5.20;4.80;3.80
56495;PMS5003;42804;55.762;38.084;2023-05-07T00:14:06;10.40;6.40;3.40
56495;PMS5003;42804;55.762;38.084;2023-05-07T00:16:34;6.20;4.80;1.00
56495;PMS5003;42804;55.762;38.084;2023-05-07T00:19:04;7.40;5.20;1.00
56495;PMS5003;42804;55.762;38.084;2023-05-07T00:21:32;10.80;10.00;6.20
56495;PMS5003;42804;55.762;38.084;2023-05-07T00:24:00;9.00;7.00;4.00
56495;PMS5003;42804;55.762;38.084;2023-05-07T00:26:28;8.20;8.20;5.60
56495;PMS5003;42804;55.762;38.084;2023-05-07T00:28:57;5.40;3.60;3.20
56495;PMS5003;42804;55.762;38.084;2023-05-07T00:31:25;11.80;9.40;5.20
56495;PMS5003;42804;55.762;38.084;2023-05-07T00:33:53;12.00;9.80;5.20
56495;PMS5003;42804;55.762;38.084;2023-05-07T00:36:23;6.60;6.40;2.60
56495;PMS5003;42804;55.762;38.084;2023-05-07T00:38:53;17.20;12.80;6.20
56495;PMS5003;42804;55.762;38.084;2023-05-07T00:41:21;9.00;6.80;4.00
56495;PMS5003;42804;55.762;38.084;2023-05-07T00:43:50;10.00;9.00;6.00
56495;PMS5003;42804;55.762;38.084;2023-05-07T00:46:19;8.40;7.20;4.00
56495;PMS5003;42804;55.762;38.084;2023-05-07T00:48:48;1.40;1.00;0.00
56495;PMS5003;42804;55.762;38.084;2023-05-07T00:51:17;11.20;9.40;6.00
56495;PMS5003;42804;55.762;38.084;2023-05-07T00:53:47;12.80;6.00;3.60
56495;PMS5003;42804;55.762;38.084;2023-05-07T00:56:15;6.20;6.20;3.00
56495;PMS5003;42804;55.762;38.084;2023-05-07T00:58:44;9.80;7.00;4.80
56495;PMS5003;42804;55.762;38.084;2023-05-07T01:01:12;12.00;10.00;5.60
56495;PMS5003;42804;55.762;38.084;2023-05-07T01:03:42;10.00;9.00;3.80
56495;PMS5003;42804;55.762;38.084;2023-05-07T01:06:11;6.40;6.40;3.40
56495;PMS5003;42804;55.762;38.084;2023-05-07T01:08:44;7.60;7.60;3.80
56495;PMS5003;42804;55.762;38.084;2023-05-07T01:11:14;4.00;0.00;0.00
56495;PMS5003;42804;55.762;38.084;2023-05-07T01:13:43;9.60;8.20;4.80
56495;PMS5003;42804;55.762;38.084;2023-05-07T01:16:11;6.20;5.20;3.00
56495;PMS5003;42804;55.762;38.084;2023-05-07T01:18:40;9.40;9.00;3.80
56495;PMS5003;42804;55.762;38.084;2023-05-07T01:21:10;3.60;3.60;3.20
56495;PMS5003;42804;55.762;38.084;2023-05-07T01:23:40;7.40;4.80;1.40
56495;PMS5003;42804;55.762;38.084;2023-05-07T01:26:09;6.60;6.00;3.00
56495;PMS5003;42804;55.762;38.084;2023-05-07T01:28:37;8.60;6.20;5.60
56495;PMS5003;42804;55.762;38.084;2023-05-07T01:31:06;7.80;7.00;4.00
56495;PMS5003;42804;55.762;38.084;2023-05-07T01:33:35;9.80;9.00;4.00
56495;PMS5003;42804;55.762;38.084;2023-05-07T01:36:04;7.80;6.40;4.40
56495;PMS5003;42804;55.762;38.084;2023-05-07T01:38:35;7.00;3.00;3.00
56495;PMS5003;42804;55.762;38.084;2023-05-07T01:41:05;8.80;7.60;3.60
56495;PMS5003;42804;55.762;38.084;2023-05-07T01:43:34;7.00;7.00;3.60
56495;PMS5003;42804;55.762;38.084;2023-05-07T01:46:02;6.00;3.80;0.00
56495;PMS5003;42804;55.762;38.084;2023-05-07T01:48:31;1.00;0.00;0.00
56495;PMS5003;42804;55.762;38.084;2023-05-07T01:51:00;7.40;4.80;3.00
56495;PMS5003;42804;55.762;38.084;2023-05-07T01:53:30;6.40;6.20;3.80
56495;PMS5003;42804;55.762;38.084;2023-05-07T01:56:03;9.20;6.80;5.20
56495;PMS5003;42804;55.762;38.084;2023-05-07T01:58:34;7.60;5.20;1.00
56495;PMS5003;42804;55.762;38.084;2023-05-07T02:01:02;5.60;4.80;3.00
56495;PMS5003;42804;55.762;38.084;2023-05-07T02:03:31;7.80;7.80;4.00
56495;PMS5003;42804;55.762;38.084;2023-05-07T02:06:07;9.40;6.00;3.40
56495;PMS5003;42804;55.762;38.084;2023-05-07T02:08:38;4.00;4.00;3.00
56495;PMS5003;42804;55.762;38.084;2023-05-07T02:11:06;6.20;5.40;3.00
56495;PMS5003;42804;55.762;38.084;2023-05-07T02:13:37;5.25;3.25;1.00
56495;PMS5003;42804;55.762;38.084;2023-05-07T02:16:06;7.25;5.75;3.25
56495;PMS5003;42804;55.762;38.084;2023-05-07T02:18:34;8.50;6.50;3.00
56495;PMS5003;42804;55.762;38.084;2023-05-07T02:21:03;6.25;6.25;4.00
56495;PMS5003;42804;55.762;38.084;2023-05-07T02:23:31;6.25;5.75;1.00
56495;PMS5003;42804;55.762;38.084;2023-05-07T02:26:01;6.75;5.50;3.00
56495;PMS5003;42804;55.762;38.084;2023-05-07T02:28:29;9.00;9.00;4.50
56495;PMS5003;42804;55.762;38.084;2023-05-07T02:31:03;8.00;7.00;4.00
56495;PMS5003;42804;55.762;38.084;2023-05-07T02:33:32;7.50;7.50;4.00
56495;PMS5003;42804;55.762;38.084;2023-05-07T02:36:06;1.00;1.00;0.00
56495;PMS5003;42804;55.762;38.084;2023-05-07T02:38:38;8.50;5.25;1.50
56495;PMS5003;42804;55.762;38.084;2023-05-07T02:41:07;7.00;5.00;3.50
56495;PMS5003;42804;55.762;38.084;2023-05-07T02:43:35;5.50;4.25;2.00
56495;PMS5003;42804;55.762;38.084;2023-05-07T02:46:06;6.00;5.25;2.00
56495;PMS5003;42804;55.762;38.084;2023-05-07T02:48:38;13.25;7.75;4.25
56495;PMS5003;42804;55.762;38.084;2023-05-07T02:51:07;7.25;7.00;4.00
56495;PMS5003;42804;55.762;38.084;2023-05-07T02:53:37;4.50;4.50;2.50
56495;PMS5003;42804;55.762;38.084;2023-05-07T02:56:05;7.50;6.50;3.00
56495;PMS5003;42804;55.762;38.084;2023-05-07T02:58:33;6.00;6.00;3.00
56495;PMS5003;42804;55.762;38.084;2023-05-07T03:01:05;5.50;5.00;3.00
56495;PMS5003;42804;55.762;38.084;2023-05-07T03:03:41;6.75;4.75;2.00
56495;PMS5003;42804;55.762;38.084;2023-05-07T03:06:09;2.75;2.75;1.00
56495;PMS5003;42804;55.762;38.084;2023-05-07T03:08:37;5.00;4.50;1.25
56495;PMS5003;42804;55.762;38.084;2023-05-07T03:11:05;5.00;4.75;3.50
56495;PMS5003;42804;55.762;38.084;2023-05-07T03:13:34;5.00;4.75;2.00
56495;PMS5003;42804;55.762;38.084;2023-05-07T03:16:02;8.00;7.25;3.75
56495;PMS5003;42804;55.762;38.084;2023-05-07T03:18:32;1.50;1.50;0.25
56495;PMS5003;42804;55.762;38.084;2023-05-07T03:21:00;4.75;4.00;2.25
56495;PMS5003;42804;55.762;38.084;2023-05-07T03:23:28;8.00;6.00;2.50
56495;PMS5003;42804;55.762;38.084;2023-05-07T03:25:56;3.75;3.25;1.25
56495;PMS5003;42804;55.762;38.084;2023-05-07T03:28:25;6.50;6.50;3.50
56495;PMS5003;42804;55.762;38.084;2023-05-07T03:30:58;5.75;3.50;3.00
56495;PMS5003;42804;55.762;38.084;2023-05-07T03:33:27;7.00;7.00;3.00
56495;PMS5003;42804;55.762;38.084;2023-05-07T03:35:57;4.00;4.00;1.00
56495;PMS5003;42804;55.762;38.084;2023-05-07T03:38:27;5.00;4.00;2.25
56495;PMS5003;42804;55.762;38.084;2023-05-07T03:40:55;4.25;3.75;1.00
56495;PMS5003;42804;55.762;38.084;2023-05-07T03:43:23;6.50;6.50;4.00
56495;PMS5003;42804;55.762;38.084;2023-05-07T03:45:59;7.00;6.00;3.25
56495;PMS5003;42804;55.762;38.084;2023-05-07T03:48:28;6.00;4.00;1.00
56495;PMS5003;42804;55.762;38.084;2023-05-07T03:50:59;4.25;1.75;1.00
56495;PMS5003;42804;55.762;38.084;2023-05-07T03:53:31;6.00;5.75;1.75
56495;PMS5003;42804;55.762;38.084;2023-05-07T03:56:00;3.75;3.00;2.00
56495;PMS5003;42804;55.762;38.084;2023-05-07T03:58:32;5.00;3.50;1.50
56495;PMS5003;42804;55.762;38.084;2023-05-07T04:01:05;3.00;3.00;1.00
56495;PMS5003;42804;55.762;38.084;2023-05-07T04:03:34;5.00;4.00;3.00
56495;PMS5003;42804;55.762;38.084;2023-05-07T04:06:05;3.00;3.00;1.00
56495;PMS5003;42804;55.762;38.084;2023-05-07T04:08:34;3.50;3.00;1.00
56495;PMS5003;42804;55.762;38.084;2023-05-07T04:11:04;4.75;0.75;0.00
56495;PMS5003;42804;55.762;38.084;2023-05-07T04:13:34;5.00;5.00;1.00
56495;PMS5003;42804;55.762;38.084;2023-05-07T04:16:05;7.00;6.50;2.00
56495;PMS5003;42804;55.762;38.084;2023-05-07T04:18:35;4.00;4.00;1.00
56495;PMS5003;42804;55.762;38.084;2023-05-07T04:21:05;4.50;3.75;1.00
56495;PMS5003;42804;55.762;38.084;2023-05-07T04:23:37;4.00;3.00;1.00
56495;PMS5003;42804;55.762;38.084;2023-05-07T04:26:09;4.50;3.50;1.00
56495;PMS5003;42804;55.762;38.084;2023-05-07T04:28:41;1.00;1.00;1.00
56495;PMS5003;42804;55.762;38.084;2023-05-07T04:31:10;1.00;1.00;1.00
56495;PMS5003;42804;55.762;38.084;2023-05-07T04:33:39;4.00;2.00;0.00
56495;PMS5003;42804;55.762;38.084;2023-05-07T04:36:12;4.50;3.25;2.50
56495;PMS5003;42804;55.762;38.084;2023-05-07T04:38:50;3.75;1.00;0.00
56495;PMS5003;42804;55.762;38.084;2023-05-07T04:41:19;2.50;2.50;0.00
56495;PMS5003;42804;55.762;38.084;2023-05-07T04:43:48;1.00;1.00;0.25
56495;PMS5003;42804;55.762;38.084;2023-05-07T04:46:19;1.00;1.00;1.00
56495;PMS5003;42804;55.762;38.084;2023-05-07T04:48:49;3.75;3.50;3.00
56495;PMS5003;42804;55.762;38.084;2023-05-07T04:51:18;3.00;3.00;1.80
56495;PMS5003;42804;55.762;38.084;2023-05-07T04:53:47;4.00;3.00;1.00
56495;PMS5003;42804;55.762;38.084;2023-05-07T04:56:15;0.75;0.75;0.00
56495;PMS5003;42804;55.762;38.084;2023-05-07T04:58:45;1.25;1.00;1.00
56495;PMS5003;42804;55.762;38.084;2023-05-07T05:01:15;1.75;1.25;0.00
56495;PMS5003;42804;55.762;38.084;2023-05-07T05:03:43;3.00;2.00;1.00
56495;PMS5003;42804;55.762;38.084;2023-05-07T05:06:12;1.75;1.75;0.50
56495;PMS5003;42804;55.762;38.084;2023-05-07T05:08:41;4.00;4.00;1.00
56495;PMS5003;42804;55.762;38.084;2023-05-07T05:11:10;1.75;1.75;0.00
56495;PMS5003;42804;55.762;38.084;2023-05-07T05:13:55;0.50;0.50;0.00
56495;PMS5003;42804;55.762;38.084;2023-05-07T05:16:24;2.00;2.00;1.00
56495;PMS5003;42804;55.762;38.084;2023-05-07T05:18:52;1.00;0.00;0.00
56495;PMS5003;42804;55.762;38.084;2023-05-07T05:21:21;1.00;1.00;0.00
56495;PMS5003;42804;55.762;38.084;2023-05-07T05:23:54;1.00;1.00;0.00
56495;PMS5003;42804;55.762;38.084;2023-05-07T05:26:24;0.00;0.00;0.00
56495;PMS5003;42804;55.762;38.084;2023-05-07T05:28:52;2.50;2.50;0.00
56495;PMS5003;42804;55.762;38.084;2023-05-07T05:31:41;2.50;1.00;0.00
56495;PMS5003;42804;55.762;38.084;2023-05-07T05:34:10;2.00;1.00;0.75
56495;PMS5003;42804;55.762;38.084;2023-05-07T05:36:38;0.25;0.00;0.00
56495;PMS5003;42804;55.762;38.084;2023-05-07T05:39:08;0.00;0.00;0.00
56495;PMS5003;42804;55.762;38.084;2023-05-07T05:41:36;0.00;0.00;0.00
56495;PMS5003;42804;55.762;38.084;2023-05-07T05:44:04;1.00;0.50;0.00
56495;PMS5003;42804;55.762;38.084;2023-05-07T05:46:34;0.50;0.50;0.00
56495;PMS5003;42804;55.762;38.084;2023-05-07T05:49:03;1.50;1.50;0.25
56495;PMS5003;42804;55.762;38.084;2023-05-07T05:51:32;1.25;0.75;0.00
56495;PMS5003;42804;55.762;38.084;2023-05-07T05:54:00;1.00;1.00;0.00
56495;PMS5003;42804;55.762;38.084;2023-05-07T05:56:32;0.00;0.00;0.00
56495;PMS5003;42804;55.762;38.084;2023-05-07T05:59:01;3.25;1.00;1.00
56495;PMS5003;42804;55.762;38.084;2023-05-07T06:01:29;1.00;0.00;0.00
56495;PMS5003;42804;55.762;38.084;2023-05-07T06:04:00;2.00;1.25;0.00
56495;PMS5003;42804;55.762;38.084;2023-05-07T06:06:29;4.50;0.50;0.00
56495;PMS5003;42804;55.762;38.084;2023-05-07T06:08:59;0.50;0.50;0.00
56495;PMS5003;42804;55.762;38.084;2023-05-07T06:11:36;0.50;0.00;0.00
56495;PMS5003;42804;55.762;38.084;2023-05-07T06:14:05;1.00;0.50;0.00
56495;PMS5003;42804;55.762;38.084;2023-05-07T06:16:34;1.00;1.00;0.00
56495;PMS5003;42804;55.762;38.084;2023-05-07T06:19:05;2.00;1.75;1.00
56495;PMS5003;42804;55.762;38.084;2023-05-07T06:21:33;0.75;0.00;0.00
56495;PMS5003;42804;55.762;38.084;2023-05-07T06:24:02;0.00;0.00;0.00
56495;PMS5003;42804;55.762;38.084;2023-05-07T06:26:30;0.50;0.50;0.25
56495;PMS5003;42804;55.762;38.084;2023-05-07T06:29:00;1.50;1.00;0.00
56495;PMS5003;42804;55.762;38.084;2023-05-07T06:31:29;2.00;1.75;1.00
56495;PMS5003;42804;55.762;38.084;2023-05-07T06:34:04;1.00;1.00;0.00
56495;PMS5003;42804;55.762;38.084;2023-05-07T06:36:36;2.00;1.00;0.00
56495;PMS5003;42804;55.762;38.084;2023-05-07T06:39:33;1.00;1.00;0.00
56495;PMS5003;42804;55.762;38.084;2023-05-07T06:42:01;1.00;0.25;0.00
56495;PMS5003;42804;55.762;38.084;2023-05-07T06:44:33;1.00;1.00;0.00
56495;PMS5003;42804;55.762;38.084;2023-05-07T06:47:07;2.00;2.00;1.00
56495;PMS5003;42804;55.762;38.084;2023-05-07T06:49:38;1.25;1.25;0.00
56495;PMS5003;42804;55.762;38.084;2023-05-07T06:52:06;1.75;1.50;0.00
56495;PMS5003;42804;55.762;38.084;2023-05-07T06:54:35;4.00;4.00;1.00
56495;PMS5003;42804;55.762;38.084;2023-05-07T06:57:03;3.00;3.00;1.00
56495;PMS5003;42804;55.762;38.084;2023-05-07T06:59:32;4.00;1.75;0.50
56495;PMS5003;42804;55.762;38.084;2023-05-07T07:02:02;0.00;0.00;0.00
56495;PMS5003;42804;55.762;38.084;2023-05-07T07:04:30;1.00;1.00;1.00
56495;PMS5003;42804;55.762;38.084;2023-05-07T07:07:04;2.50;1.25;1.00
56495;PMS5003;42804;55.762;38.084;2023-05-07T07:09:32;1.00;1.00;0.25
56495;PMS5003;42804;55.762;38.084;2023-05-07T07:12:02;0.50;0.50;0.00
56495;PMS5003;42804;55.762;38.084;2023-05-07T07:14:31;2.00;2.00;0.75
56495;PMS5003;42804;55.762;38.084;2023-05-07T07:16:59;1.50;1.50;1.00
56495;PMS5003;42804;55.762;38.084;2023-05-07T07:19:29;2.00;1.00;0.00
56495;PMS5003;42804;55.762;38.084;2023-05-07T07:21:58;2.00;2.00;1.00
56495;PMS5003;42804;55.762;38.084;2023-05-07T07:24:27;0.00;0.00;0.00
56495;PMS5003;42804;55.762;38.084;2023-05-07T07:26:59;1.25;1.25;1.00
56495;PMS5003;42804;55.762;38.084;2023-05-07T07:29:28;1.75;1.75;0.75
56495;PMS5003;42804;55.762;38.084;2023-05-07T07:31:57;0.00;0.00;0.00
56495;PMS5003;42804;55.762;38.084;2023-05-07T07:34:26;1.00;1.00;0.25
56495;PMS5003;42804;55.762;38.084;2023-05-07T07:36:56;1.00;1.00;0.25
56495;PMS5003;42804;55.762;38.084;2023-05-07T07:39:24;1.00;1.00;0.00
56495;PMS5003;42804;55.762;38.084;2023-05-07T07:41:55;1.00;1.00;0.75
56495;PMS5003;42804;55.762;38.084;2023-05-07T07:44:25;0.00;0.00;0.00
56495;PMS5003;42804;55.762;38.084;2023-05-07T07:46:58;1.00;1.00;0.00
56495;PMS5003;42804;55.762;38.084;2023-05-07T07:49:28;0.75;0.75;0.25
56495;PMS5003;42804;55.762;38.084;2023-05-07T07:52:01;2.00;1.50;0.00
56495;PMS5003;42804;55.762;38.084;2023-05-07T07:54:31;1.00;1.00;0.25
56495;PMS5003;42804;55.762;38.084;2023-05-07T07:56:59;0.00;0.00;0.00
56495;PMS5003;42804;55.762;38.084;2023-05-07T07:59:31;1.00;1.00;0.00
56495;PMS5003;42804;55.762;38.084;2023-05-07T08:01:59;1.50;1.50;1.00
56495;PMS5003;42804;55.762;38.084;2023-05-07T08:04:29;1.00;1.00;1.00
56495;PMS5003;42804;55.762;38.084;2023-05-07T08:07:04;4.50;3.00;1.00
56495;PMS5003;42804;55.762;38.084;2023-05-07T08:09:36;2.50;2.00;1.00
56495;PMS5003;42804;55.762;38.084;2023-05-07T08:12:06;1.00;1.00;0.00
56495;PMS5003;42804;55.762;38.084;2023-05-07T08:14:35;0.00;0.00;0.00
56495;PMS5003;42804;55.762;38.084;2023-05-07T08:17:06;1.00;1.00;1.00
56495;PMS5003;42804;55.762;38.084;2023-05-07T08:19:34;1.00;1.00;0.75
56495;PMS5003;42804;55.762;38.084;2023-05-07T08:22:07;0.75;0.75;0.00
56495;PMS5003;42804;55.762;38.084;2023-05-07T08:24:35;4.00;1.00;0.00
56495;PMS5003;42804;55.762;38.084;2023-05-07T08:27:04;1.75;1.00;0.25
56495;PMS5003;42804;55.762;38.084;2023-05-07T08:29:33;0.75;0.00;0.00
56495;PMS5003;42804;55.762;38.084;2023-05-07T08:32:02;2.00;2.00;1.50
56495;PMS5003;42804;55.762;38.084;2023-05-07T08:34:31;1.00;1.00;0.50
56495;PMS5003;42804;55.762;38.084;2023-05-07T08:37:04;1.25;1.25;0.25
56495;PMS5003;42804;55.762;38.084;2023-05-07T08:39:35;1.00;1.00;0.00
56495;PMS5003;42804;55.762;38.084;2023-05-07T08:42:09;2.00;1.00;1.00
56495;PMS5003;42804;55.762;38.084;2023-05-07T08:44:37;1.50;1.25;0.75
56495;PMS5003;42804;55.762;38.084;2023-05-07T08:47:06;0.00;0.00;0.00
56495;PMS5003;42804;55.762;38.084;2023-05-07T08:49:36;1.00;0.50;0.50
56495;PMS5003;42804;55.762;38.084;2023-05-07T08:52:06;2.00;1.00;1.00
56495;PMS5003;42804;55.762;38.084;2023-05-07T08:54:38;3.00;2.50;1.00
56495;PMS5003;42804;55.762;38.084;2023-05-07T08:57:09;1.00;1.00;0.00
56495;PMS5003;42804;55.762;38.084;2023-05-07T08:59:38;2.00;2.00;0.75
56495;PMS5003;42804;55.762;38.084;2023-05-07T09:02:06;1.75;1.75;1.00
56495;PMS5003;42804;55.762;38.084;2023-05-07T09:04:38;6.00;6.00;4.50
56495;PMS5003;42804;55.762;38.084;2023-05-07T09:07:07;0.75;0.00;0.00
56495;PMS5003;42804;55.762;38.084;2023-05-07T09:09:42;1.25;1.25;1.00
56495;PMS5003;42804;55.762;38.084;2023-05-07T09:12:12;1.00;1.00;0.00
56495;PMS5003;42804;55.762;38.084;2023-05-07T09:14:40;1.25;1.25;1.00
56495;PMS5003;42804;55.762;38.084;2023-05-07T09:17:09;2.25;2.00;1.00
56495;PMS5003;42804;55.762;38.084;2023-05-07T09:19:37;1.25;1.00;0.25
56495;PMS5003;42804;55.762;38.084;2023-05-07T09:22:07;1.50;1.00;0.25
56495;PMS5003;42804;55.762;38.084;2023-05-07T09:24:52;1.00;1.00;0.00
56495;PMS5003;42804;55.762;38.084;2023-05-07T09:27:24;1.75;1.50;0.75
56495;PMS5003;42804;55.762;38.084;2023-05-07T09:29:54;2.00;1.25;0.00
56495;PMS5003;42804;55.762;38.084;2023-05-07T09:32:24;1.50;1.25;0.25
56495;PMS5003;42804;55.762;38.084;2023-05-07T09:34:54;0.00;0.00;0.00
56495;PMS5003;42804;55.762;38.084;2023-05-07T09:37:25;1.00;1.00;0.00
56495;PMS5003;42804;55.762;38.084;2023-05-07T09:39:55;2.00;1.50;1.00
56495;PMS5003;42804;55.762;38.084;2023-05-07T09:42:26;1.50;0.50;0.00
56495;PMS5003;42804;55.762;38.084;2023-05-07T09:44:59;2.00;1.00;0.00
56495;PMS5003;42804;55.762;38.084;2023-05-07T09:47:33;0.25;0.25;0.00
56495;PMS5003;42804;55.762;38.084;2023-05-07T09:50:05;1.00;1.00;0.00
56495;PMS5003;42804;55.762;38.084;2023-05-07T09:52:37;1.00;1.00;0.00
56495;PMS5003;42804;55.762;38.084;2023-05-07T09:55:09;1.00;1.00;0.00
56495;PMS5003;42804;55.762;38.084;2023-05-07T09:57:41;1.00;1.00;0.00
56495;PMS5003;42804;55.762;38.084;2023-05-07T10:00:10;4.25;1.75;0.00
56495;PMS5003;42804;55.762;38.084;2023-05-07T10:02:49;1.50;1.00;0.00
56495;PMS5003;42804;55.762;38.084;2023-05-07T10:05:25;3.25;2.00;1.00
56495;PMS5003;42804;55.762;38.084;2023-05-07T10:07:57;2.00;2.00;0.75
56495;PMS5003;42804;55.762;38.084;2023-05-07T10:10:30;0.00;0.00;0.00
56495;PMS5003;42804;55.762;38.084;2023-05-07T10:12:58;0.50;0.50;0.50
56495;PMS5003;42804;55.762;38.084;2023-05-07T10:15:32;1.50;1.00;0.00
56495;PMS5003;42804;55.762;38.084;2023-05-07T10:18:02;1.00;1.00;0.00
56495;PMS5003;42804;55.762;38.084;2023-05-07T10:20:31;1.00;1.00;0.00
56495;PMS5003;42804;55.762;38.084;2023-05-07T10:23:02;0.50;0.50;0.00
56495;PMS5003;42804;55.762;38.084;2023-05-07T10:25:38;1.00;1.00;0.50
56495;PMS5003;42804;55.762;38.084;2023-05-07T10:28:13;0.00;0.00;0.00
56495;PMS5003;42804;55.762;38.084;2023-05-07T10:30:48;1.50;1.00;0.00
56495;PMS5003;42804;55.762;38.084;2023-05-07T10:33:23;1.25;1.25;1.00
56495;PMS5003;42804;55.762;38.084;2023-05-07T10:35:55;3.75;0.75;0.00
56495;PMS5003;42804;55.762;38.084;2023-05-07T10:38:26;3.00;2.50;1.00
56495;PMS5003;42804;55.762;38.084;2023-05-07T10:40:57;0.25;0.25;0.00
56495;PMS5003;42804;55.762;38.084;2023-05-07T10:43:36;1.00;0.50;0.00
56495;PMS5003;42804;55.762;38.084;2023-05-07T10:46:09;2.00;1.00;1.00
56495;PMS5003;42804;55.762;38.084;2023-05-07T10:51:36;2.25;1.50;0.00
56495;PMS5003;42804;55.762;38.084;2023-05-07T10:54:25;1.00;1.00;0.00
56495;PMS5003;42804;55.762;38.084;2023-05-07T10:59:54;1.00;1.00;1.00
56495;PMS5003;42804;55.762;38.084;2023-05-07T11:05:20;0.75;0.75;0.00
56495;PMS5003;42804;55.762;38.084;2023-05-07T11:08:05;1.75;0.75;0.00
56495;PMS5003;42804;55.762;38.084;2023-05-07T11:10:48;2.00;1.75;1.00
56495;PMS5003;42804;55.762;38.084;2023-05-07T11:16:18;1.00;1.00;0.00
56495;PMS5003;42804;55.762;38.084;2023-05-07T11:18:51;2.00;2.00;1.00
56495;PMS5003;42804;55.762;38.084;2023-05-07T11:21:33;2.75;1.75;0.00
56495;PMS5003;42804;55.762;38.084;2023-05-07T11:24:21;1.00;1.00;0.00
56495;PMS5003;42804;55.762;38.084;2023-05-07T11:26:56;3.00;3.00;2.00
56495;PMS5003;42804;55.762;38.084;2023-05-07T11:29:26;4.75;2.50;1.00
56495;PMS5003;42804;55.762;38.084;2023-05-07T11:32:06;4.00;4.00;2.00
56495;PMS5003;42804;55.762;38.084;2023-05-07T11:34:41;2.00;2.00;1.00
56495;PMS5003;42804;55.762;38.084;2023-05-07T11:37:11;0.00;0.00;0.00
56495;PMS5003;42804;55.762;38.084;2023-05-07T11:39:46;1.75;1.75;0.00
56495;PMS5003;42804;55.762;38.084;2023-05-07T11:44:58;1.75;1.00;1.00
56495;PMS5003;42804;55.762;38.084;2023-05-07T11:47:29;0.00;0.00;0.00
56495;PMS5003;42804;55.762;38.084;2023-05-07T11:50:02;1.00;1.00;0.00
56495;PMS5003;42804;55.762;38.084;2023-05-07T11:52:31;3.50;3.50;1.00
56495;PMS5003;42804;55.762;38.084;2023-05-07T11:55:00;2.00;1.00;0.25
56495;PMS5003;42804;55.762;38.084;2023-05-07T11:57:32;3.00;3.00;2.00
56495;PMS5003;42804;55.762;38.084;2023-05-07T12:00:01;3.00;2.00;1.00
56495;PMS5003;42804;55.762;38.084;2023-05-07T12:02:40;1.00;0.25;0.00
56495;PMS5003;42804;55.762;38.084;2023-05-07T12:05:09;2.00;2.00;2.00
56495;PMS5003;42804;55.762;38.084;2023-05-07T12:07:38;1.25;1.00;0.50
56495;PMS5003;42804;55.762;38.084;2023-05-07T12:10:06;0.75;0.75;0.00
56495;PMS5003;42804;55.762;38.084;2023-05-07T12:12:38;2.00;1.50;1.00
56495;PMS5003;42804;55.762;38.084;2023-05-07T12:15:08;1.50;1.00;0.00
56495;PMS5003;42804;55.762;38.084;2023-05-07T12:17:37;3.25;2.00;1.00
56495;PMS5003;42804;55.762;38.084;2023-05-07T12:20:07;2.00;2.00;1.00
56495;PMS5003;42804;55.762;38.084;2023-05-07T12:22:36;1.00;1.00;0.25
56495;PMS5003;42804;55.762;38.084;2023-05-07T12:25:05;3.00;2.00;1.00
56495;PMS5003;42804;55.762;38.084;2023-05-07T12:27:36;2.00;2.00;1.25
56495;PMS5003;42804;55.762;38.084;2023-05-07T12:30:04;2.00;2.00;1.00
56495;PMS5003;42804;55.762;38.084;2023-05-07T12:32:33;3.25;2.25;1.00
56495;PMS5003;42804;55.762;38.084;2023-05-07T12:35:05;2.00;2.00;1.00
56495;PMS5003;42804;55.762;38.084;2023-05-07T12:37:35;2.50;2.00;1.00
56495;PMS5003;42804;55.762;38.084;2023-05-07T12:40:03;3.00;3.00;1.75
56495;PMS5003;42804;55.762;38.084;2023-05-07T12:42:32;2.75;2.00;1.25
56495;PMS5003;42804;55.762;38.084;2023-05-07T12:45:12;1.00;0.50;0.00
56495;PMS5003;42804;55.762;38.084;2023-05-07T12:47:43;2.00;2.00;1.00
56495;PMS5003;42804;55.762;38.084;2023-05-07T12:50:12;1.00;1.00;1.00
56495;PMS5003;42804;55.762;38.084;2023-05-07T12:52:42;2.00;2.00;1.00
56495;PMS5003;42804;55.762;38.084;2023-05-07T12:55:12;2.00;2.00;1.00
56495;PMS5003;42804;55.762;38.084;2023-05-07T12:57:42;0.25;0.00;0.00
56495;PMS5003;42804;55.762;38.084;2023-05-07T13:00:11;3.50;3.50;2.00
56495;PMS5003;42804;55.762;38.084;2023-05-07T13:02:39;2.00;2.00;0.00
56495;PMS5003;42804;55.762;38.084;2023-05-07T13:05:08;2.25;2.25;1.00
56495;PMS5003;42804;55.762;38.084;2023-05-07T13:07:37;1.25;1.25;1.00
56495;PMS5003;42804;55.762;38.084;2023-05-07T13:10:07;2.75;2.00;0.25
56495;PMS5003;42804;55.762;38.084;2023-05-07T13:12:36;2.00;2.00;1.00
56495;PMS5003;42804;55.762;38.084;2023-05-07T13:15:05;2.00;2.00;1.00
56495;PMS5003;42804;55.762;38.084;2023-05-07T13:17:33;1.00;1.00;0.50
56495;PMS5003;42804;55.762;38.084;2023-05-07T13:20:02;2.00;2.00;1.00
56495;PMS5003;42804;55.762;38.084;2023-05-07T13:22:31;4.00;3.50;1.00
56495;PMS5003;42804;55.762;38.084;2023-05-07T13:24:59;4.50;3.00;2.00
56495;PMS5003;42804;55.762;38.084;2023-05-07T13:27:31;4.00;3.00;2.50
56495;PMS5003;42804;55.762;38.084;2023-05-07T13:30:03;1.75;1.75;1.00
56495;PMS5003;42804;55.762;38.084;2023-05-07T13:32:31;3.00;3.00;2.00
56495;PMS5003;42804;55.762;38.084;2023-05-07T13:35:00;0.50;0.50;0.00
56495;PMS5003;42804;55.762;38.084;2023-05-07T13:37:29;4.50;3.00;2.00
56495;PMS5003;42804;55.762;38.084;2023-05-07T13:39:57;4.00;4.00;2.00
56495;PMS5003;42804;55.762;38.084;2023-05-07T13:42:26;2.00;1.00;0.00
56495;PMS5003;42804;55.762;38.084;2023-05-07T13:44:55;4.50;3.00;2.50
56495;PMS5003;42804;55.762;38.084;2023-05-07T13:47:25;6.00;5.00;3.00
56495;PMS5003;42804;55.762;38.084;2023-05-07T13:49:53;2.50;2.25;2.00
56495;PMS5003;42804;55.762;38.084;2023-05-07T13:52:22;3.00;3.00;1.00
56495;PMS5003;42804;55.762;38.084;2023-05-07T13:54:50;6.50;5.00;2.50
56495;PMS5003;42804;55.762;38.084;2023-05-07T13:57:19;2.50;2.50;1.00
56495;PMS5003;42804;55.762;38.084;2023-05-07T13:59:47;3.00;2.00;1.00
56495;PMS5003;42804;55.762;38.084;2023-05-07T14:02:19;3.00;3.00;2.00
56495;PMS5003;42804;55.762;38.084;2023-05-07T14:04:47;2.75;2.50;2.00
56495;PMS5003;42804;55.762;38.084;2023-05-07T14:07:16;5.50;5.25;2.75
56495;PMS5003;42804;55.762;38.084;2023-05-07T14:09:44;4.50;3.00;2.00
56495;PMS5003;42804;55.762;38.084;2023-05-07T14:12:13;5.00;5.00;2.00
56495;PMS5003;42804;55.762;38.084;2023-05-07T14:14:41;1.00;1.00;0.00
56495;PMS5003;42804;55.762;38.084;2023-05-07T14:17:09;3.50;3.50;2.00
56495;PMS5003;42804;55.762;38.084;2023-05-07T14:19:39;6.50;6.00;2.50
56495;PMS5003;42804;55.762;38.084;2023-05-07T14:22:08;5.00;3.00;2.00
56495;PMS5003;42804;55.762;38.084;2023-05-07T14:24:38;6.00;5.25;3.00
56495;PMS5003;42804;55.762;38.084;2023-05-07T14:27:06;3.00;3.00;2.00
56495;PMS5003;42804;55.762;38.084;2023-05-07T14:29:34;5.25;5.00;3.00
56495;PMS5003;42804;55.762;38.084;2023-05-07T14:32:03;5.50;5.50;2.50
56495;PMS5003;42804;55.762;38.084;2023-05-07T14:34:31;4.50;4.50;2.00
56495;PMS5003;42804;55.762;38.084;2023-05-07T14:37:01;3.00;3.00;2.00
56495;PMS5003;42804;55.762;38.084;2023-05-07T14:39:30;5.00;5.00;2.25
56495;PMS5003;42804;55.762;38.084;2023-05-07T14:41:58;5.00;5.00;2.00